createdAt,value
2023-02-12T00:01:26.788Z,3.31
2023-02-12T00:02:26.885Z,3.28
2023-02-12T00:04:26.863Z,3.30
2023-02-12T00:05:26.836Z,3.26
2023-02-12T00:06:26.859Z,3.19
2023-02-12T00:07:26.824Z,3.14
2023-02-12T00:08:26.806Z,3.05
2023-02-12T00:09:26.825Z,3.02
2023-02-12T00:10:26.810Z,3.03
2023-02-12T00:11:26.873Z,3.05
2023-02-12T00:12:26.880Z,3.09
2023-02-12T00:13:26.855Z,3.15
2023-02-12T00:14:26.851Z,3.21
2023-02-12T00:15:26.893Z,3.27
2023-02-12T00:16:26.856Z,3.31
2023-02-12T00:17:26.893Z,3.34
2023-02-12T00:18:26.864Z,3.33
2023-02-12T00:19:26.889Z,3.34
2023-02-12T00:20:26.871Z,3.37
2023-02-12T00:21:26.873Z,3.41
2023-02-12T00:22:26.838Z,3.42
2023-02-12T00:23:26.830Z,3.45
2023-02-12T00:24:26.850Z,3.49
2023-02-12T00:25:26.928Z,3.51
2023-02-12T00:26:26.969Z,3.52
2023-02-12T00:28:26.966Z,3.51
2023-02-12T00:29:26.839Z,3.52
2023-02-12T00:30:26.904Z,3.54
2023-02-12T00:31:27.102Z,3.55
2023-02-12T00:32:26.860Z,3.56
2023-02-12T00:33:28.969Z,3.54
2023-02-12T00:34:26.878Z,3.53
2023-02-12T00:37:26.915Z,3.52
2023-02-12T00:38:26.939Z,3.56
2023-02-12T00:39:26.913Z,3.58
2023-02-12T00:40:26.921Z,3.60
2023-02-12T00:43:26.878Z,3.57
2023-02-12T00:44:26.894Z,3.58
2023-02-12T00:45:26.934Z,3.57
2023-02-12T00:46:27.046Z,3.54
2023-02-12T00:47:26.928Z,3.53
2023-02-12T00:48:26.919Z,3.54
2023-02-12T00:49:26.895Z,3.55
2023-02-12T00:52:26.907Z,3.56
2023-02-12T00:54:26.899Z,3.57
2023-02-12T00:55:26.949Z,3.58
2023-02-12T00:56:26.965Z,3.57
2023-02-12T00:57:26.971Z,3.55
2023-02-12T00:58:26.935Z,3.54
2023-02-12T00:59:26.939Z,3.52
2023-02-12T01:00:26.977Z,3.54
2023-02-12T01:01:27.018Z,3.53
2023-02-12T01:02:26.996Z,3.51
2023-02-12T01:03:26.968Z,3.50
2023-02-12T01:04:26.936Z,3.46
2023-02-12T01:05:27.060Z,3.43
2023-02-12T01:06:27.014Z,3.42
2023-02-12T01:07:26.937Z,3.40
2023-02-12T01:08:26.965Z,3.38
2023-02-12T01:09:26.978Z,3.36
2023-02-12T01:10:29.375Z,3.33
2023-02-12T01:11:26.957Z,3.30
2023-02-12T01:12:27.025Z,3.25
2023-02-12T01:13:26.963Z,3.23
2023-02-12T01:16:27.047Z,3.22
2023-02-12T01:17:26.959Z,3.23
2023-02-12T01:18:26.973Z,3.25
2023-02-12T01:19:27.004Z,3.26
2023-02-12T01:21:27.008Z,3.28
2023-02-12T01:23:27.025Z,3.27
2023-02-12T01:24:26.992Z,3.26
2023-02-12T01:25:27.035Z,3.25
2023-02-12T01:26:27.051Z,3.24
2023-02-12T01:28:27.085Z,3.23
2023-02-12T01:29:27.043Z,3.21
2023-02-12T01:31:27.146Z,3.18
2023-02-12T01:32:27.050Z,3.19
2023-02-12T01:33:27.054Z,3.20
2023-02-12T01:34:27.037Z,3.19
2023-02-12T01:35:27.034Z,3.17
2023-02-12T01:36:27.020Z,3.16
2023-02-12T01:37:27.070Z,3.15
2023-02-12T01:38:27.061Z,3.14
2023-02-12T01:39:27.062Z,3.15
2023-02-12T01:41:27.071Z,3.14
2023-02-12T01:42:27.028Z,3.13
2023-02-12T01:44:27.043Z,3.15
2023-02-12T01:45:27.070Z,3.14
2023-02-12T01:46:27.081Z,3.13
2023-02-12T01:47:29.887Z,3.11
2023-02-12T01:49:27.088Z,3.12
2023-02-12T01:50:27.086Z,3.15
2023-02-12T01:51:27.105Z,3.14
2023-02-12T01:53:27.166Z,3.13
2023-02-12T01:54:27.121Z,3.10
2023-02-12T01:55:27.135Z,3.11
2023-02-12T01:56:27.057Z,3.08
2023-02-12T01:57:27.073Z,3.06
2023-02-12T01:58:27.076Z,3.05
2023-02-12T01:59:27.096Z,3.02
2023-02-12T02:01:27.185Z,3.03
2023-02-12T02:03:27.176Z,3.04
2023-02-12T02:04:27.119Z,2.98
2023-02-12T02:05:27.155Z,2.95
2023-02-12T02:06:27.088Z,2.93
2023-02-12T02:07:27.137Z,2.90
2023-02-12T02:08:27.137Z,2.83
2023-02-12T02:10:27.142Z,2.84
2023-02-12T02:11:27.225Z,2.86
2023-02-12T02:13:27.253Z,2.87
2023-02-12T02:14:27.091Z,2.88
2023-02-12T02:15:27.254Z,2.90
2023-02-12T02:16:27.179Z,2.92
2023-02-12T02:17:27.136Z,2.91
2023-02-12T02:18:27.178Z,2.89
2023-02-12T02:20:27.230Z,2.91
2023-02-12T02:21:27.149Z,2.92
2023-02-12T02:22:27.223Z,2.93
2023-02-12T02:23:27.165Z,2.95
2023-02-12T02:24:30.428Z,2.96
2023-02-12T02:27:27.718Z,2.97
2023-02-12T02:28:27.262Z,2.96
2023-02-12T02:29:27.164Z,2.99
2023-02-12T02:30:27.248Z,2.91
2023-02-12T02:31:27.316Z,2.87
2023-02-12T02:32:27.222Z,2.84
2023-02-12T02:33:27.267Z,2.81
2023-02-12T02:34:27.249Z,2.73
2023-02-12T02:35:27.156Z,2.45
2023-02-12T02:36:28.048Z,2.28
2023-02-12T02:38:27.185Z,2.33
2023-02-12T02:39:27.169Z,2.40
2023-02-12T02:40:27.154Z,2.47
2023-02-12T02:41:27.208Z,2.53
2023-02-12T02:42:27.168Z,2.60
2023-02-12T02:43:27.165Z,2.62
2023-02-12T02:44:27.215Z,2.66
2023-02-12T02:45:27.206Z,2.73
2023-02-12T02:46:27.296Z,2.77
2023-02-12T02:47:27.179Z,2.81
2023-02-12T02:49:27.171Z,2.74
2023-02-12T02:50:27.224Z,2.75
2023-02-12T02:51:27.190Z,2.77
2023-02-12T02:52:27.224Z,2.81
2023-02-12T02:53:27.224Z,2.83
2023-02-12T02:54:27.266Z,2.88
2023-02-12T02:56:27.196Z,2.81
2023-02-12T02:58:27.248Z,2.78
2023-02-12T02:59:27.239Z,2.68
2023-02-12T03:00:27.248Z,2.61
2023-02-12T03:01:30.947Z,2.54
2023-02-12T03:02:27.213Z,2.50
2023-02-12T03:03:27.297Z,2.49
2023-02-12T03:04:27.206Z,2.48
2023-02-12T03:05:27.231Z,2.51
2023-02-12T03:06:27.255Z,2.53
2023-02-12T03:07:27.231Z,2.55
2023-02-12T03:08:27.251Z,2.54
2023-02-12T03:09:27.259Z,2.57
2023-02-12T03:11:27.237Z,2.58
2023-02-12T03:14:27.270Z,2.60
2023-02-12T03:15:27.246Z,2.62
2023-02-12T03:16:27.309Z,2.63
2023-02-12T03:17:27.273Z,2.66
2023-02-12T03:19:27.292Z,2.68
2023-02-12T03:20:27.261Z,2.66
2023-02-12T03:21:27.251Z,2.63
2023-02-12T03:22:27.288Z,2.62
2023-02-12T03:24:27.261Z,2.61
2023-02-12T03:26:27.314Z,2.60
2023-02-12T03:27:27.307Z,2.59
2023-02-12T03:28:27.415Z,2.58
2023-02-12T03:29:27.328Z,2.57
2023-02-12T03:30:27.288Z,2.50
2023-02-12T03:31:27.323Z,2.43
2023-02-12T03:32:27.316Z,2.42
2023-02-12T03:34:27.300Z,2.43
2023-02-12T03:35:27.290Z,2.46
2023-02-12T03:37:27.330Z,2.47
2023-02-12T03:38:31.478Z,2.48
2023-02-12T03:39:27.334Z,2.50
2023-02-12T03:40:27.313Z,2.52
2023-02-12T03:41:27.303Z,2.54
2023-02-12T03:42:27.349Z,2.55
2023-02-12T03:43:27.315Z,2.57
2023-02-12T03:44:27.320Z,2.56
2023-02-12T03:49:27.327Z,2.54
2023-02-12T03:52:27.330Z,2.53
2023-02-12T03:53:27.368Z,2.51
2023-02-12T03:54:27.387Z,2.50
2023-02-12T03:56:27.355Z,2.49
2023-02-12T03:57:27.393Z,2.50
2023-02-12T03:58:27.405Z,2.49
2023-02-12T03:59:27.362Z,2.48
2023-02-12T04:01:27.583Z,2.47
2023-02-12T04:02:27.342Z,2.45
2023-02-12T04:03:27.434Z,2.43
2023-02-12T04:04:27.449Z,2.41
2023-02-12T04:05:27.358Z,2.38
2023-02-12T04:06:27.376Z,2.37
2023-02-12T04:09:27.364Z,2.38
2023-02-12T04:10:27.419Z,2.39
2023-02-12T04:11:27.407Z,2.40
2023-02-12T04:12:27.418Z,2.41
2023-02-12T04:13:27.421Z,2.40
2023-02-12T04:15:31.849Z,2.39
2023-02-12T04:16:27.487Z,2.37
2023-02-12T04:17:27.418Z,2.36
2023-02-12T04:19:27.431Z,2.37
2023-02-12T04:20:27.432Z,2.36
2023-02-12T04:22:27.433Z,2.37
2023-02-12T04:23:27.411Z,2.35
2023-02-12T04:24:27.443Z,2.34
2023-02-12T04:25:27.437Z,2.32
2023-02-12T04:26:27.487Z,2.31
2023-02-12T04:28:27.479Z,2.30
2023-02-12T04:29:27.470Z,2.28
2023-02-12T04:30:27.513Z,2.26
2023-02-12T04:31:27.593Z,2.27
2023-02-12T04:33:27.474Z,2.25
2023-02-12T04:34:27.485Z,2.23
2023-02-12T04:36:27.533Z,2.24
2023-02-12T04:37:27.443Z,2.23
2023-02-12T04:39:27.452Z,2.22
2023-02-12T04:42:27.446Z,2.19
2023-02-12T04:43:27.461Z,2.17
2023-02-12T04:45:27.459Z,2.15
2023-02-12T04:46:27.524Z,2.16
2023-02-12T04:47:27.472Z,2.17
2023-02-12T04:48:27.492Z,2.16
2023-02-12T04:50:27.470Z,2.10
2023-02-12T04:51:27.460Z,2.06
2023-02-12T04:52:32.235Z,2.04
2023-02-12T04:53:27.482Z,2.01
2023-02-12T04:54:27.503Z,2.00
2023-02-12T04:55:27.530Z,1.98
2023-02-12T04:56:27.498Z,1.96
2023-02-12T04:57:27.518Z,1.95
2023-02-12T04:58:27.533Z,1.93
2023-02-12T04:59:27.503Z,1.94
2023-02-12T05:00:27.500Z,1.90
2023-02-12T05:01:29.663Z,1.89
2023-02-12T05:04:27.546Z,1.86
2023-02-12T05:05:27.653Z,1.84
2023-02-12T05:06:27.514Z,1.83
2023-02-12T05:07:27.517Z,1.85
2023-02-12T05:09:27.524Z,1.83
2023-02-12T05:10:27.584Z,1.86
2023-02-12T05:11:27.522Z,1.88
2023-02-12T05:12:27.525Z,1.89
2023-02-12T05:13:27.553Z,1.88
2023-02-12T05:14:27.564Z,1.87
2023-02-12T05:15:27.632Z,1.88
2023-02-12T05:16:27.546Z,1.89
2023-02-12T05:18:27.541Z,1.86
2023-02-12T05:19:27.534Z,1.85
2023-02-12T05:20:27.607Z,1.86
2023-02-12T05:22:27.571Z,1.85
2023-02-12T05:23:27.593Z,1.83
2023-02-12T05:25:27.651Z,1.84
2023-02-12T05:26:27.849Z,1.83
2023-02-12T05:27:27.543Z,1.81
2023-02-12T05:29:32.619Z,1.83
2023-02-12T05:30:27.587Z,1.81
2023-02-12T05:31:27.767Z,1.80
2023-02-12T05:33:27.660Z,1.79
2023-02-12T05:34:27.625Z,1.80
2023-02-12T05:35:27.605Z,1.81
2023-02-12T05:36:27.600Z,1.82
2023-02-12T05:37:27.603Z,1.85
2023-02-12T05:38:27.661Z,1.86
2023-02-12T05:39:27.590Z,1.87
2023-02-12T05:40:27.636Z,1.90
2023-02-12T05:41:27.622Z,1.92
2023-02-12T05:42:27.630Z,1.93
2023-02-12T05:43:27.659Z,1.94
2023-02-12T05:44:27.638Z,1.95
2023-02-12T05:45:27.598Z,1.97
2023-02-12T05:47:27.650Z,1.99
2023-02-12T05:48:27.647Z,1.98
2023-02-12T05:49:27.616Z,2.01
2023-02-12T05:50:27.632Z,2.03
2023-02-12T05:51:27.648Z,2.04
2023-02-12T05:52:27.658Z,2.05
2023-02-12T05:54:27.647Z,2.07
2023-02-12T05:55:27.659Z,2.06
2023-02-12T05:56:27.662Z,2.05
2023-02-12T05:57:27.630Z,2.01
2023-02-12T05:58:27.659Z,1.95
2023-02-12T05:59:27.683Z,1.91
2023-02-12T06:00:27.695Z,1.88
2023-02-12T06:02:27.791Z,1.89
2023-02-12T06:04:27.765Z,1.88
2023-02-12T06:05:27.682Z,1.83
2023-02-12T06:06:27.698Z,1.75
2023-02-12T06:07:27.676Z,1.74
2023-02-12T06:09:27.738Z,1.77
2023-02-12T06:10:27.682Z,1.79
2023-02-12T06:11:27.670Z,1.81
2023-02-12T06:12:27.654Z,1.85
2023-02-12T06:13:27.671Z,1.89
2023-02-12T06:14:29.156Z,1.91
2023-02-12T06:15:27.707Z,1.94
2023-02-12T06:16:27.786Z,1.92
2023-02-12T06:18:27.705Z,1.90
2023-02-12T06:19:27.705Z,1.91
2023-02-12T06:20:27.676Z,1.88
2023-02-12T06:21:27.686Z,1.86
2023-02-12T06:22:27.682Z,1.84
2023-02-12T06:23:27.681Z,1.85
2023-02-12T06:26:27.757Z,1.87
2023-02-12T06:27:27.736Z,1.91
2023-02-12T06:28:27.770Z,1.96
2023-02-12T06:29:27.695Z,1.98
2023-02-12T06:30:27.766Z,2.02
2023-02-12T06:31:27.922Z,2.03
2023-02-12T06:32:27.744Z,2.05
2023-02-12T06:33:27.709Z,2.06
2023-02-12T06:34:27.760Z,2.09
2023-02-12T06:35:27.713Z,2.08
2023-02-12T06:36:27.765Z,2.07
2023-02-12T06:37:27.776Z,2.08
2023-02-12T06:38:27.718Z,2.10
2023-02-12T06:41:27.777Z,2.11
2023-02-12T06:42:27.740Z,2.13
2023-02-12T06:43:27.728Z,2.19
2023-02-12T06:44:27.729Z,2.20
2023-02-12T06:45:27.777Z,2.24
2023-02-12T06:46:27.774Z,2.27
2023-02-12T06:47:27.740Z,2.28
2023-02-12T06:48:27.802Z,2.30
2023-02-12T06:49:27.794Z,2.33
2023-02-12T06:50:27.792Z,2.35
2023-02-12T06:51:27.765Z,2.38
2023-02-12T06:52:27.803Z,2.41
2023-02-12T06:53:27.806Z,2.44
2023-02-12T06:54:27.815Z,2.49
2023-02-12T06:55:27.848Z,2.53
2023-02-12T06:56:27.791Z,2.57
2023-02-12T06:57:27.779Z,2.62
2023-02-12T06:58:27.792Z,2.64
2023-02-12T06:59:27.816Z,2.68
2023-02-12T07:01:27.837Z,2.65
2023-02-12T07:02:27.784Z,2.63
2023-02-12T07:03:27.832Z,2.64
2023-02-12T07:04:27.824Z,2.68
2023-02-12T07:05:27.867Z,2.69
2023-02-12T07:06:27.803Z,2.73
2023-02-12T07:07:27.789Z,2.75
2023-02-12T07:08:27.854Z,2.77
2023-02-12T07:09:27.805Z,2.80
2023-02-12T07:10:27.839Z,2.81
2023-02-12T07:11:27.864Z,2.85
2023-02-12T07:12:27.821Z,2.86
2023-02-12T07:15:27.873Z,2.88
2023-02-12T07:16:27.896Z,2.89
2023-02-12T07:17:29.014Z,2.91
2023-02-12T07:18:27.899Z,2.94
2023-02-12T07:19:27.843Z,2.96
2023-02-12T07:20:27.867Z,2.98
2023-02-12T07:21:27.849Z,3.02
2023-02-12T07:22:27.837Z,3.05
2023-02-12T07:23:27.867Z,3.04
2023-02-12T07:24:27.882Z,3.01
2023-02-12T07:25:27.875Z,3.02
2023-02-12T07:27:27.883Z,3.01
2023-02-12T07:28:28.011Z,3.02
2023-02-12T07:29:27.854Z,3.03
2023-02-12T07:30:27.903Z,3.04
2023-02-12T07:31:27.996Z,3.03
2023-02-12T07:32:27.858Z,3.06
2023-02-12T07:33:27.869Z,3.05
2023-02-12T07:34:27.904Z,3.07
2023-02-12T07:35:27.895Z,3.08
2023-02-12T07:36:27.956Z,3.11
2023-02-12T07:38:27.920Z,3.14
2023-02-12T07:39:27.879Z,3.17
2023-02-12T07:41:27.876Z,3.15
2023-02-12T07:42:27.911Z,3.20
2023-02-12T07:43:27.943Z,3.62
2023-02-12T07:44:27.909Z,4.46
2023-02-12T07:45:27.921Z,5.57
2023-02-12T07:46:27.926Z,6.72
2023-02-12T07:47:27.877Z,7.79
2023-02-12T07:48:27.903Z,8.79
2023-02-12T07:49:27.953Z,9.75
2023-02-12T07:50:27.942Z,10.60
2023-02-12T07:51:27.900Z,11.40
2023-02-12T07:52:27.951Z,12.08
2023-02-12T07:53:27.899Z,12.74
2023-02-12T07:54:29.248Z,13.39
2023-02-12T07:55:27.925Z,13.96
2023-02-12T07:56:27.952Z,14.48
2023-02-12T07:57:27.955Z,14.93
2023-02-12T07:58:27.977Z,15.39
2023-02-12T07:59:28.008Z,15.77
2023-02-12T08:00:27.974Z,16.07
2023-02-12T08:01:27.931Z,16.33
2023-02-12T08:02:28.017Z,16.66
2023-02-12T08:03:27.996Z,16.91
2023-02-12T08:04:28.110Z,17.20
2023-02-12T08:05:27.975Z,17.52
2023-02-12T08:06:27.982Z,17.78
2023-02-12T08:07:27.991Z,18.07
2023-02-12T08:08:27.993Z,18.32
2023-02-12T08:09:27.997Z,18.55
2023-02-12T08:10:30.071Z,18.75
2023-02-12T08:11:27.950Z,18.96
2023-02-12T08:12:28.019Z,19.10
2023-02-12T08:13:27.986Z,19.27
2023-02-12T08:14:27.984Z,19.43
2023-02-12T08:15:28.014Z,19.60
2023-02-12T08:16:28.164Z,19.59
2023-02-12T08:17:28.005Z,19.72
2023-02-12T08:18:27.978Z,19.89
2023-02-12T08:19:28.041Z,20.09
2023-02-12T08:20:28.050Z,20.22
2023-02-12T08:21:28.016Z,20.44
2023-02-12T08:22:28.026Z,20.68
2023-02-12T08:23:28.029Z,20.86
2023-02-12T08:24:28.014Z,21.00
2023-02-12T08:25:28.004Z,21.17
2023-02-12T08:26:28.002Z,21.34
2023-02-12T08:27:27.988Z,21.56
2023-02-12T08:28:28.141Z,21.75
2023-02-12T08:30:28.040Z,21.86
2023-02-12T08:31:29.663Z,21.93
2023-02-12T08:32:28.019Z,22.08
2023-02-12T08:33:28.041Z,22.28
2023-02-12T08:34:28.049Z,22.26
2023-02-12T08:35:28.069Z,22.24
2023-02-12T08:36:28.012Z,22.32
2023-02-12T08:37:28.019Z,22.49
2023-02-12T08:38:28.037Z,22.65
2023-02-12T08:39:28.052Z,22.73
2023-02-12T08:40:28.049Z,22.93
2023-02-12T08:41:28.038Z,23.09
2023-02-12T08:42:28.045Z,23.22
2023-02-12T08:43:28.063Z,23.40
2023-02-12T08:44:28.069Z,23.52
2023-02-12T08:45:28.038Z,23.57
2023-02-12T08:46:28.178Z,23.69
2023-02-12T08:47:29.749Z,23.87
2023-02-12T08:48:28.069Z,24.02
2023-02-12T08:49:28.091Z,24.17
2023-02-12T08:50:28.064Z,24.29
2023-02-12T08:51:28.052Z,24.32
2023-02-12T08:52:28.099Z,24.41
2023-02-12T08:53:28.140Z,24.59
2023-02-12T08:54:28.085Z,24.65
2023-02-12T08:55:28.059Z,24.82
2023-02-12T08:56:28.070Z,24.93
2023-02-12T08:57:28.104Z,24.96
2023-02-12T08:58:28.096Z,25.13
2023-02-12T08:59:28.090Z,25.34
2023-02-12T09:00:28.132Z,25.45
2023-02-12T09:01:28.148Z,25.55
2023-02-12T09:02:28.126Z,25.56
2023-02-12T09:03:28.157Z,25.57
2023-02-12T09:04:28.160Z,25.65
2023-02-12T09:05:28.142Z,25.70
2023-02-12T09:06:28.128Z,25.83
2023-02-12T09:07:28.088Z,25.97
2023-02-12T09:08:30.044Z,26.09
2023-02-12T09:09:28.140Z,26.12
2023-02-12T09:10:28.129Z,26.22
2023-02-12T09:11:28.098Z,26.34
2023-02-12T09:12:28.148Z,26.46
2023-02-12T09:13:28.177Z,26.56
2023-02-12T09:14:28.113Z,26.69
2023-02-12T09:15:28.098Z,26.77
2023-02-12T09:16:28.193Z,26.90
2023-02-12T09:17:28.108Z,27.01
2023-02-12T09:18:28.122Z,27.14
2023-02-12T09:19:28.119Z,27.26
2023-02-12T09:20:28.133Z,27.39
2023-02-12T09:21:28.215Z,27.42
2023-02-12T09:22:28.164Z,27.45
2023-02-12T09:23:28.167Z,27.44
2023-02-12T09:24:28.403Z,27.45
2023-02-12T09:25:28.189Z,27.51
2023-02-12T09:26:28.224Z,27.55
2023-02-12T09:27:30.306Z,27.52
2023-02-12T09:28:28.196Z,27.45
2023-02-12T09:29:28.176Z,27.54
2023-02-12T09:30:28.151Z,27.70
2023-02-12T09:31:28.372Z,27.90
2023-02-12T09:32:28.146Z,27.95
2023-02-12T09:33:28.158Z,27.96
2023-02-12T09:34:28.200Z,27.87
2023-02-12T09:35:28.290Z,27.85
2023-02-12T09:36:28.172Z,28.01
2023-02-12T09:37:28.169Z,28.11
2023-02-12T09:38:28.177Z,28.12
2023-02-12T09:39:28.169Z,28.30
2023-02-12T09:40:28.178Z,28.33
2023-02-12T09:41:28.222Z,28.38
2023-02-12T09:42:28.184Z,28.37
2023-02-12T09:43:28.184Z,28.32
2023-02-12T09:44:28.293Z,28.18
2023-02-12T09:45:30.432Z,28.22
2023-02-12T09:46:28.344Z,28.17
2023-02-12T09:47:28.195Z,28.20
2023-02-12T09:48:28.194Z,28.35
2023-02-12T09:49:28.236Z,28.28
2023-02-12T09:50:28.199Z,28.34
2023-02-12T09:51:28.242Z,28.45
2023-02-12T09:52:28.255Z,28.39
2023-02-12T09:53:28.251Z,28.43
2023-02-12T09:54:28.291Z,28.16
2023-02-12T09:55:28.248Z,28.00
2023-02-12T09:56:28.272Z,27.94
2023-02-12T09:57:28.254Z,28.01
2023-02-12T09:58:28.279Z,28.05
2023-02-12T09:59:28.239Z,28.01
2023-02-12T10:00:28.268Z,27.81
2023-02-12T10:01:28.373Z,27.86
2023-02-12T10:02:28.242Z,27.55
2023-02-12T10:03:28.252Z,27.37
2023-02-12T10:04:28.328Z,27.20
2023-02-12T10:05:28.239Z,27.10
2023-02-12T10:06:28.254Z,26.97
2023-02-12T10:07:28.256Z,26.67
2023-02-12T10:08:28.262Z,26.32
2023-02-12T10:09:28.310Z,25.87
2023-02-12T10:10:28.263Z,25.18
2023-02-12T10:11:28.263Z,24.17
2023-02-12T10:12:28.278Z,22.91
2023-02-12T10:13:28.267Z,21.96
2023-02-12T10:14:28.312Z,20.88
2023-02-12T10:15:28.418Z,20.03
2023-02-12T10:16:28.284Z,19.34
2023-02-12T10:17:28.306Z,18.48
2023-02-12T10:18:28.459Z,17.55
2023-02-12T10:19:28.312Z,16.84
2023-02-12T10:20:28.285Z,16.01
2023-02-12T10:21:28.295Z,15.63
2023-02-12T10:22:30.840Z,15.33
2023-02-12T10:23:28.334Z,14.99
2023-02-12T10:24:28.386Z,14.72
2023-02-12T10:25:28.344Z,14.51
2023-02-12T10:26:28.341Z,14.42
2023-02-12T10:27:28.323Z,14.40
2023-02-12T10:28:28.584Z,14.42
2023-02-12T10:29:28.352Z,14.48
2023-02-12T10:30:28.351Z,14.59
2023-02-12T10:31:30.253Z,14.56
2023-02-12T10:32:28.325Z,14.57
2023-02-12T10:33:28.371Z,14.32
2023-02-12T10:34:28.354Z,14.20
2023-02-12T10:35:28.326Z,13.99
2023-02-12T10:36:28.320Z,13.84
2023-02-12T10:37:28.410Z,13.66
2023-02-12T10:38:28.458Z,13.45
2023-02-12T10:39:28.327Z,13.21
2023-02-12T10:40:28.333Z,13.22
2023-02-12T10:41:28.378Z,13.32
2023-02-12T10:42:28.369Z,13.43
2023-02-12T10:43:28.388Z,13.40
2023-02-12T10:45:28.387Z,13.38
2023-02-12T10:46:28.439Z,13.41
2023-02-12T10:47:28.389Z,13.49
2023-02-12T10:48:28.432Z,13.60
2023-02-12T10:49:28.364Z,13.70
2023-02-12T10:50:28.437Z,13.78
2023-02-12T10:51:28.340Z,13.86
2023-02-12T10:52:28.380Z,13.89
2023-02-12T10:53:28.362Z,13.88
2023-02-12T10:54:28.365Z,13.82
2023-02-12T10:55:28.398Z,13.71
2023-02-12T10:56:28.369Z,13.66
2023-02-12T10:57:28.421Z,13.50
2023-02-12T10:58:28.493Z,13.47
2023-02-12T10:59:31.204Z,13.40
2023-02-12T11:00:28.378Z,13.36
2023-02-12T11:01:28.467Z,13.13
2023-02-12T11:02:28.412Z,12.97
2023-02-12T11:03:28.440Z,12.88
2023-02-12T11:04:28.392Z,12.82
2023-02-12T11:05:28.395Z,12.75
2023-02-12T11:06:28.408Z,12.77
2023-02-12T11:07:28.447Z,12.85
2023-02-12T11:08:28.454Z,12.91
2023-02-12T11:09:28.421Z,12.96
2023-02-12T11:10:28.447Z,12.94
2023-02-12T11:11:28.418Z,12.89
2023-02-12T11:12:28.402Z,12.88
2023-02-12T11:13:28.652Z,12.87
2023-02-12T11:14:28.415Z,12.71
2023-02-12T11:15:28.412Z,12.61
2023-02-12T11:17:28.434Z,12.65
2023-02-12T11:18:28.499Z,12.75
2023-02-12T11:19:28.428Z,12.82
2023-02-12T11:20:28.469Z,12.80
2023-02-12T11:21:28.461Z,12.72
2023-02-12T11:22:28.453Z,12.62
2023-02-12T11:23:28.485Z,12.60
2023-02-12T11:24:28.436Z,12.64
2023-02-12T11:25:28.451Z,12.67
2023-02-12T11:26:28.500Z,12.60
2023-02-12T11:27:28.440Z,12.50
2023-02-12T11:28:28.677Z,12.43
2023-02-12T11:29:28.487Z,12.31
2023-02-12T11:30:28.605Z,12.12
2023-02-12T11:31:28.571Z,12.03
2023-02-12T11:32:28.502Z,12.04
2023-02-12T11:33:28.552Z,12.06
2023-02-12T11:34:28.501Z,11.99
2023-02-12T11:35:28.513Z,12.05
2023-02-12T11:36:31.639Z,12.09
2023-02-12T11:37:28.521Z,12.04
2023-02-12T11:38:28.516Z,11.99
2023-02-12T11:39:28.537Z,12.06
2023-02-12T11:40:28.482Z,12.15
2023-02-12T11:41:28.512Z,12.23
2023-02-12T11:42:28.527Z,12.29
2023-02-12T11:43:28.560Z,12.34
2023-02-12T11:45:28.506Z,12.24
2023-02-12T11:46:28.635Z,12.26
2023-02-12T11:47:28.546Z,12.35
2023-02-12T11:48:28.519Z,12.37
2023-02-12T11:49:28.508Z,12.30
2023-02-12T11:50:28.582Z,12.09
2023-02-12T11:51:28.553Z,12.06
2023-02-12T11:52:28.503Z,12.10
2023-02-12T11:53:28.535Z,12.07
2023-02-12T11:54:28.522Z,12.06
2023-02-12T11:55:28.556Z,12.12
2023-02-12T11:56:28.590Z,12.07
2023-02-12T11:57:28.532Z,12.09
2023-02-12T11:58:28.559Z,12.17
2023-02-12T11:59:28.569Z,12.11
2023-02-12T12:00:28.568Z,12.07
2023-02-12T12:01:28.593Z,12.15
2023-02-12T12:02:28.568Z,12.27
2023-02-12T12:03:28.709Z,12.39
2023-02-12T12:04:28.582Z,12.47
2023-02-12T12:05:28.542Z,12.60
2023-02-12T12:06:28.617Z,12.74
2023-02-12T12:07:28.580Z,12.85
2023-02-12T12:08:28.587Z,12.92
2023-02-12T12:09:28.612Z,13.02
2023-02-12T12:10:28.591Z,13.13
2023-02-12T12:11:28.634Z,13.20
2023-02-12T12:12:28.589Z,13.21
2023-02-12T12:13:32.029Z,13.19
2023-02-12T12:14:28.606Z,13.20
2023-02-12T12:15:28.645Z,13.24
2023-02-12T12:16:28.678Z,13.26
2023-02-12T12:17:28.614Z,13.21
2023-02-12T12:18:28.570Z,13.13
2023-02-12T12:19:29.136Z,13.12
2023-02-12T12:21:28.584Z,13.09
2023-02-12T12:22:28.628Z,13.05
2023-02-12T12:23:28.621Z,13.06
2023-02-12T12:24:28.627Z,13.09
2023-02-12T12:25:28.597Z,13.01
2023-02-12T12:26:28.614Z,12.97
2023-02-12T12:27:28.639Z,12.93
2023-02-12T12:29:28.651Z,12.94
2023-02-12T12:30:28.598Z,12.89
2023-02-12T12:31:28.647Z,12.86
2023-02-12T12:32:28.611Z,12.83
2023-02-12T12:33:28.650Z,12.80
2023-02-12T12:34:28.702Z,12.77
2023-02-12T12:35:28.629Z,12.76
2023-02-12T12:36:28.629Z,12.71
2023-02-12T12:37:28.625Z,12.66
2023-02-12T12:38:28.647Z,12.65
2023-02-12T12:41:28.632Z,12.66
2023-02-12T12:42:28.680Z,12.69
2023-02-12T12:44:28.681Z,12.57
2023-02-12T12:45:28.759Z,12.46
2023-02-12T12:46:28.650Z,12.48
2023-02-12T12:47:28.636Z,12.53
2023-02-12T12:48:28.643Z,12.36
2023-02-12T12:49:30.294Z,12.31
2023-02-12T12:50:32.420Z,12.15
2023-02-12T12:51:28.713Z,12.10
2023-02-12T12:53:28.658Z,12.17
2023-02-12T12:54:28.655Z,12.26
2023-02-12T12:55:28.679Z,12.37
2023-02-12T12:56:28.705Z,12.45
2023-02-12T12:57:28.759Z,12.51
2023-02-12T12:58:28.682Z,12.53
2023-02-12T12:59:28.685Z,12.54
2023-02-12T13:00:28.692Z,12.56
2023-02-12T13:01:29.866Z,12.55
2023-02-12T13:02:28.711Z,12.57
2023-02-12T13:03:28.682Z,12.60
2023-02-12T13:04:28.723Z,12.56
2023-02-12T13:05:28.722Z,12.57
2023-02-12T13:06:28.739Z,12.60
2023-02-12T13:07:28.723Z,12.63
2023-02-12T13:09:28.749Z,12.61
2023-02-12T13:10:28.746Z,12.59
2023-02-12T13:11:29.872Z,12.62
2023-02-12T13:12:28.792Z,12.67
2023-02-12T13:13:28.750Z,12.68
2023-02-12T13:14:28.777Z,12.69
2023-02-12T13:15:28.809Z,12.71
2023-02-12T13:16:28.822Z,12.68
2023-02-12T13:17:28.748Z,12.65
2023-02-12T13:18:28.767Z,12.64
2023-02-12T13:19:28.753Z,12.60
2023-02-12T13:20:28.814Z,12.49
2023-02-12T13:21:28.739Z,12.44
2023-02-12T13:22:28.738Z,12.45
2023-02-12T13:23:28.750Z,12.42
2023-02-12T13:24:28.746Z,12.41
2023-02-12T13:25:28.811Z,12.35
2023-02-12T13:26:28.778Z,12.24
2023-02-12T13:27:34.262Z,12.16
2023-02-12T13:28:28.933Z,12.10
2023-02-12T13:29:28.803Z,12.02
2023-02-12T13:30:29.050Z,11.92
2023-02-12T13:31:33.992Z,11.65
2023-02-12T13:32:28.850Z,11.57
2023-02-12T13:33:28.812Z,11.54
2023-02-12T13:34:28.770Z,11.49
2023-02-12T13:35:28.807Z,11.52
2023-02-12T13:36:28.770Z,11.44
2023-02-12T13:37:28.775Z,11.42
2023-02-12T13:38:28.862Z,11.41
2023-02-12T13:39:28.828Z,11.47
2023-02-12T13:40:28.823Z,11.48
2023-02-12T13:41:28.835Z,11.51
2023-02-12T13:42:28.826Z,11.59
2023-02-12T13:43:28.789Z,11.72
2023-02-12T13:44:28.810Z,11.80
2023-02-12T13:45:28.801Z,11.84
2023-02-12T13:46:28.893Z,11.85
2023-02-12T13:47:28.796Z,11.90
2023-02-12T13:48:28.800Z,11.88
2023-02-12T13:49:28.798Z,11.68
2023-02-12T13:50:28.810Z,11.67
2023-02-12T13:51:28.850Z,11.70
2023-02-12T13:52:28.860Z,11.82
2023-02-12T13:53:28.827Z,11.91
2023-02-12T13:54:28.891Z,11.87
2023-02-12T13:55:28.870Z,11.86
2023-02-12T13:56:28.875Z,11.84
2023-02-12T13:57:28.822Z,11.77
2023-02-12T13:58:28.859Z,11.81
2023-02-12T13:59:28.853Z,11.87
2023-02-12T14:00:28.843Z,11.90
2023-02-12T14:01:28.946Z,11.85
2023-02-12T14:02:28.909Z,11.94
2023-02-12T14:03:28.843Z,12.02
2023-02-12T14:04:33.183Z,12.07
2023-02-12T14:05:28.886Z,12.06
2023-02-12T14:06:28.851Z,12.08
2023-02-12T14:07:28.886Z,12.00
2023-02-12T14:08:28.840Z,11.98
2023-02-12T14:09:29.847Z,11.97
2023-02-12T14:11:28.900Z,12.01
2023-02-12T14:13:28.878Z,11.91
2023-02-12T14:14:28.897Z,11.78
2023-02-12T14:15:28.880Z,11.77
2023-02-12T14:16:28.903Z,11.79
2023-02-12T14:17:28.914Z,11.84
2023-02-12T14:18:28.867Z,11.83
2023-02-12T14:19:28.881Z,11.75
2023-02-12T14:20:28.875Z,11.73
2023-02-12T14:21:28.886Z,11.69
2023-02-12T14:22:28.931Z,11.71
2023-02-12T14:23:28.892Z,11.67
2023-02-12T14:24:28.875Z,11.68
2023-02-12T14:25:28.897Z,11.67
2023-02-12T14:26:28.889Z,11.56
2023-02-12T14:27:28.935Z,11.53
2023-02-12T14:28:29.080Z,11.59
2023-02-12T14:29:28.937Z,11.65
2023-02-12T14:30:28.938Z,11.62
2023-02-12T14:31:29.076Z,11.52
2023-02-12T14:33:28.938Z,11.50
2023-02-12T14:34:28.957Z,11.44
2023-02-12T14:35:28.961Z,11.41
2023-02-12T14:36:28.910Z,11.42
2023-02-12T14:37:28.922Z,11.45
2023-02-12T14:38:32.063Z,11.51
2023-02-12T14:39:28.986Z,11.52
2023-02-12T14:40:28.998Z,11.56
2023-02-12T14:41:33.539Z,11.54
2023-02-12T14:42:28.925Z,11.45
2023-02-12T14:43:28.936Z,11.35